sensor_id;sensor_type;location;lat;lon;timestamp;P1;durP1;ratioP1;P2;durP2;ratioP2
41466;SDS011;27205;53.690;19.948;2023-04-06T00:03:11;4.60;;;4.30;;
41466;SDS011;27205;53.690;19.948;2023-04-06T00:08:15;4.20;;;3.90;;
41466;SDS011;27205;53.690;19.948;2023-04-06T00:13:19;3.50;;;3.20;;
41466;SDS011;27205;53.690;19.948;2023-04-06T00:18:22;4.20;;;3.90;;
41466;SDS011;27205;53.690;19.948;2023-04-06T00:23:26;3.80;;;3.50;;
41466;SDS011;27205;53.690;19.948;2023-04-06T00:28:29;3.80;;;3.40;;
41466;SDS011;27205;53.690;19.948;2023-04-06T00:33:33;4.20;;;3.80;;
41466;SDS011;27205;53.690;19.948;2023-04-06T00:38:36;3.90;;;3.60;;
41466;SDS011;27205;53.690;19.948;2023-04-06T00:43:40;4.20;;;3.90;;
41466;SDS011;27205;53.690;19.948;2023-04-06T00:48:43;2.70;;;2.50;;
41466;SDS011;27205;53.690;19.948;2023-04-06T00:53:47;3.20;;;2.90;;
41466;SDS011;27205;53.690;19.948;2023-04-06T00:58:51;3.60;;;3.30;;
41466;SDS011;27205;53.690;19.948;2023-04-06T01:03:55;3.60;;;3.20;;
41466;SDS011;27205;53.690;19.948;2023-04-06T01:08:58;2.60;;;2.40;;
41466;SDS011;27205;53.690;19.948;2023-04-06T01:14:02;2.50;;;2.40;;
41466;SDS011;27205;53.690;19.948;2023-04-06T01:19:10;3.30;;;3.00;;
41466;SDS011;27205;53.690;19.948;2023-04-06T01:24:14;3.30;;;3.10;;
41466;SDS011;27205;53.690;19.948;2023-04-06T01:29:18;4.00;;;3.50;;
41466;SDS011;27205;53.690;19.948;2023-04-06T01:34:22;2.70;;;2.50;;
41466;SDS011;27205;53.690;19.948;2023-04-06T01:39:26;3.60;;;3.30;;
41466;SDS011;27205;53.690;19.948;2023-04-06T01:44:29;4.00;;;3.70;;
41466;SDS011;27205;53.690;19.948;2023-04-06T01:49:33;3.00;;;2.80;;
41466;SDS011;27205;53.690;19.948;2023-04-06T01:54:37;3.00;;;2.80;;
41466;SDS011;27205;53.690;19.948;2023-04-06T01:59:40;3.00;;;2.80;;
41466;SDS011;27205;53.690;19.948;2023-04-06T02:04:44;3.90;;;3.10;;
41466;SDS011;27205;53.690;19.948;2023-04-06T02:09:47;2.90;;;2.70;;
41466;SDS011;27205;53.690;19.948;2023-04-06T02:14:51;2.80;;;2.60;;
41466;SDS011;27205;53.690;19.948;2023-04-06T02:19:55;2.70;;;2.50;;
41466;SDS011;27205;53.690;19.948;2023-04-06T02:24:58;3.20;;;2.80;;
41466;SDS011;27205;53.690;19.948;2023-04-06T02:30:02;4.20;;;3.80;;
41466;SDS011;27205;53.690;19.948;2023-04-06T02:35:07;3.50;;;3.20;;
41466;SDS011;27205;53.690;19.948;2023-04-06T02:40:11;2.90;;;2.70;;
41466;SDS011;27205;53.690;19.948;2023-04-06T02:45:14;3.60;;;3.20;;
41466;SDS011;27205;53.690;19.948;2023-04-06T02:50:19;3.30;;;3.00;;
41466;SDS011;27205;53.690;19.948;2023-04-06T02:55:22;3.70;;;3.10;;
41466;SDS011;27205;53.690;19.948;2023-04-06T03:00:26;2.00;;;1.90;;
41466;SDS011;27205;53.690;19.948;2023-04-06T03:05:29;3.00;;;2.80;;
41466;SDS011;27205;53.690;19.948;2023-04-06T03:10:33;3.10;;;2.90;;
41466;SDS011;27205;53.690;19.948;2023-04-06T03:15:37;3.20;;;3.00;;
41466;SDS011;27205;53.690;19.948;2023-04-06T03:20:40;2.10;;;2.00;;
41466;SDS011;27205;53.690;19.948;2023-04-06T03:25:44;3.60;;;3.30;;
41466;SDS011;27205;53.690;19.948;2023-04-06T03:30:48;4.30;;;3.90;;
41466;SDS011;27205;53.690;19.948;2023-04-06T03:35:53;4.60;;;4.30;;
41466;SDS011;27205;53.690;19.948;2023-04-06T03:40:56;4.10;;;3.80;;
41466;SDS011;27205;53.690;19.948;2023-04-06T03:46:00;4.60;;;4.20;;
41466;SDS011;27205;53.690;19.948;2023-04-06T03:51:04;4.10;;;3.70;;
41466;SDS011;27205;53.690;19.948;2023-04-06T03:56:07;5.90;;;5.50;;
41466;SDS011;27205;53.690;19.948;2023-04-06T04:01:11;4.30;;;3.90;;
41466;SDS011;27205;53.690;19.948;2023-04-06T04:06:14;3.20;;;2.90;;
41466;SDS011;27205;53.690;19.948;2023-04-06T04:11:18;4.30;;;3.90;;
41466;SDS011;27205;53.690;19.948;2023-04-06T04:16:21;3.30;;;3.00;;
41466;SDS011;27205;53.690;19.948;2023-04-06T04:21:25;3.70;;;3.40;;
41466;SDS011;27205;53.690;19.948;2023-04-06T04:26:31;3.40;;;3.10;;
41466;SDS011;27205;53.690;19.948;2023-04-06T04:31:34;4.10;;;3.70;;
41466;SDS011;27205;53.690;19.948;2023-04-06T04:36:38;2.40;;;2.20;;
41466;SDS011;27205;53.690;19.948;2023-04-06T04:41:44;3.90;;;3.60;;
41466;SDS011;27205;53.690;19.948;2023-04-06T04:46:48;3.60;;;3.30;;
41466;SDS011;27205;53.690;19.948;2023-04-06T04:51:51;2.90;;;2.70;;
41466;SDS011;27205;53.690;19.948;2023-04-06T04:56:55;2.50;;;2.30;;
41466;SDS011;27205;53.690;19.948;2023-04-06T05:01:59;3.20;;;2.90;;
41466;SDS011;27205;53.690;19.948;2023-04-06T05:07:05;3.00;;;2.70;;
41466;SDS011;27205;53.690;19.948;2023-04-06T05:12:10;2.90;;;2.60;;
41466;SDS011;27205;53.690;19.948;2023-04-06T05:17:13;3.10;;;2.90;;
41466;SDS011;27205;53.690;19.948;2023-04-06T05:22:17;2.80;;;2.60;;
41466;SDS011;27205;53.690;19.948;2023-04-06T05:27:20;3.30;;;3.00;;
41466;SDS011;27205;53.690;19.948;2023-04-06T05:32:24;3.30;;;3.00;;
41466;SDS011;27205;53.690;19.948;2023-04-06T05:37:28;23.90;;;21.90;;
41466;SDS011;27205;53.690;19.948;2023-04-06T05:42:38;7.70;;;7.00;;
41466;SDS011;27205;53.690;19.948;2023-04-06T05:47:43;7.50;;;6.90;;
41466;SDS011;27205;53.690;19.948;2023-04-06T05:52:49;5.40;;;5.10;;
41466;SDS011;27205;53.690;19.948;2023-04-06T05:57:52;3.00;;;2.80;;
41466;SDS011;27205;53.690;19.948;2023-04-06T06:02:56;2.80;;;2.60;;
41466;SDS011;27205;53.690;19.948;2023-04-06T06:07:59;2.60;;;2.40;;
41466;SDS011;27205;53.690;19.948;2023-04-06T06:13:05;2.30;;;2.00;;
41466;SDS011;27205;53.690;19.948;2023-04-06T06:18:09;2.40;;;2.30;;
41466;SDS011;27205;53.690;19.948;2023-04-06T06:23:13;2.10;;;2.00;;
41466;SDS011;27205;53.690;19.948;2023-04-06T06:28:17;3.20;;;3.00;;
41466;SDS011;27205;53.690;19.948;2023-04-06T06:33:21;2.20;;;1.90;;
41466;SDS011;27205;53.690;19.948;2023-04-06T06:38:24;1.50;;;1.40;;
41466;SDS011;27205;53.690;19.948;2023-04-06T06:43:28;3.30;;;3.00;;
41466;SDS011;27205;53.690;19.948;2023-04-06T06:48:32;3.40;;;3.20;;
41466;SDS011;27205;53.690;19.948;2023-04-06T06:53:36;2.30;;;2.10;;
41466;SDS011;27205;53.690;19.948;2023-04-06T06:58:39;1.10;;;1.00;;
41466;SDS011;27205;53.690;19.948;2023-04-06T07:03:43;0.70;;;0.60;;
41466;SDS011;27205;53.690;19.948;2023-04-06T07:08:47;1.30;;;1.20;;
41466;SDS011;27205;53.690;19.948;2023-04-06T07:13:51;1.00;;;0.90;;
41466;SDS011;27205;53.690;19.948;2023-04-06T07:18:54;0.60;;;0.60;;
41466;SDS011;27205;53.690;19.948;2023-04-06T07:23:58;0.90;;;0.90;;
41466;SDS011;27205;53.690;19.948;2023-04-06T07:29:02;1.60;;;1.40;;
41466;SDS011;27205;53.690;19.948;2023-04-06T07:34:05;0.90;;;0.90;;
41466;SDS011;27205;53.690;19.948;2023-04-06T07:39:09;1.30;;;1.20;;
41466;SDS011;27205;53.690;19.948;2023-04-06T07:44:13;1.60;;;1.20;;
41466;SDS011;27205;53.690;19.948;2023-04-06T07:49:18;1.10;;;1.10;;
41466;SDS011;27205;53.690;19.948;2023-04-06T07:58:58;2.10;;;2.00;;
41466;SDS011;27205;53.690;19.948;2023-04-06T08:04:02;1.70;;;1.60;;
41466;SDS011;27205;53.690;19.948;2023-04-06T08:09:06;0.90;;;0.90;;
41466;SDS011;27205;53.690;19.948;2023-04-06T08:14:09;2.80;;;2.70;;
41466;SDS011;27205;53.690;19.948;2023-04-06T08:19:13;2.90;;;2.70;;
41466;SDS011;27205;53.690;19.948;2023-04-06T08:24:20;2.60;;;2.50;;
41466;SDS011;27205;53.690;19.948;2023-04-06T08:29:23;1.60;;;1.50;;
41466;SDS011;27205;53.690;19.948;2023-04-06T08:34:27;0.90;;;0.90;;
41466;SDS011;27205;53.690;19.948;2023-04-06T08:39:30;1.30;;;1.20;;
41466;SDS011;27205;53.690;19.948;2023-04-06T08:44:36;4.20;;;4.00;;
41466;SDS011;27205;53.690;19.948;2023-04-06T08:49:40;2.30;;;2.20;;
41466;SDS011;27205;53.690;19.948;2023-04-06T08:54:47;1.60;;;1.50;;
41466;SDS011;27205;53.690;19.948;2023-04-06T08:59:51;1.60;;;1.50;;
41466;SDS011;27205;53.690;19.948;2023-04-06T09:04:55;12.80;;;11.60;;
41466;SDS011;27205;53.690;19.948;2023-04-06T09:09:59;3.30;;;3.10;;
41466;SDS011;27205;53.690;19.948;2023-04-06T09:15:02;4.40;;;4.10;;
41466;SDS011;27205;53.690;19.948;2023-04-06T09:20:06;1.90;;;1.80;;
41466;SDS011;27205;53.690;19.948;2023-04-06T09:25:17;1.80;;;1.70;;
41466;SDS011;27205;53.690;19.948;2023-04-06T09:30:23;1.90;;;1.80;;
41466;SDS011;27205;53.690;19.948;2023-04-06T09:35:27;1.00;;;1.00;;
41466;SDS011;27205;53.690;19.948;2023-04-06T09:40:33;1.50;;;1.50;;
41466;SDS011;27205;53.690;19.948;2023-04-06T09:45:36;1.50;;;1.40;;
41466;SDS011;27205;53.690;19.948;2023-04-06T09:50:40;0.90;;;0.90;;
41466;SDS011;27205;53.690;19.948;2023-04-06T09:55:45;1.60;;;1.00;;
41466;SDS011;27205;53.690;19.948;2023-04-06T10:01:02;2.60;;;2.10;;
41466;SDS011;27205;53.690;19.948;2023-04-06T10:06:15;1.70;;;1.60;;
41466;SDS011;27205;53.690;19.948;2023-04-06T10:12:04;0.90;;;0.90;;
41466;SDS011;27205;53.690;19.948;2023-04-06T10:22:16;1.20;;;1.10;;
41466;SDS011;27205;53.690;19.948;2023-04-06T10:27:29;2.60;;;1.90;;
41466;SDS011;27205;53.690;19.948;2023-04-06T10:32:34;1.40;;;1.30;;
41466;SDS011;27205;53.690;19.948;2023-04-06T10:37:46;0.60;;;0.60;;
41466;SDS011;27205;53.690;19.948;2023-04-06T10:42:53;0.80;;;0.80;;
41466;SDS011;27205;53.690;19.948;2023-04-06T10:47:58;0.80;;;0.80;;
41466;SDS011;27205;53.690;19.948;2023-04-06T11:05:28;1.80;;;1.40;;
41466;SDS011;27205;53.690;19.948;2023-04-06T11:10:48;1.30;;;1.20;;
41466;SDS011;27205;53.690;19.948;2023-04-06T11:15:52;1.80;;;1.70;;
41466;SDS011;27205;53.690;19.948;2023-04-06T11:20:55;1.70;;;1.60;;
41466;SDS011;27205;53.690;19.948;2023-04-06T11:26:01;1.50;;;1.50;;
41466;SDS011;27205;53.690;19.948;2023-04-06T11:31:05;1.50;;;1.40;;
41466;SDS011;27205;53.690;19.948;2023-04-06T11:36:09;1.40;;;1.30;;
41466;SDS011;27205;53.690;19.948;2023-04-06T11:41:14;1.40;;;1.30;;
41466;SDS011;27205;53.690;19.948;2023-04-06T11:46:18;2.50;;;2.30;;
41466;SDS011;27205;53.690;19.948;2023-04-06T11:51:24;1.70;;;1.60;;
41466;SDS011;27205;53.690;19.948;2023-04-06T11:56:29;2.40;;;1.40;;
41466;SDS011;27205;53.690;19.948;2023-04-06T12:01:33;6.00;;;1.60;;
41466;SDS011;27205;53.690;19.948;2023-04-06T12:06:41;2.50;;;1.40;;
41466;SDS011;27205;53.690;19.948;2023-04-06T12:11:44;1.70;;;1.60;;
41466;SDS011;27205;53.690;19.948;2023-04-06T12:16:48;1.70;;;1.60;;
41466;SDS011;27205;53.690;19.948;2023-04-06T12:21:52;2.20;;;1.80;;
41466;SDS011;27205;53.690;19.948;2023-04-06T12:26:57;1.80;;;1.70;;
41466;SDS011;27205;53.690;19.948;2023-04-06T12:32:10;1.90;;;1.80;;
41466;SDS011;27205;53.690;19.948;2023-04-06T12:37:14;2.50;;;2.30;;
41466;SDS011;27205;53.690;19.948;2023-04-06T12:42:18;1.60;;;1.50;;
41466;SDS011;27205;53.690;19.948;2023-04-06T12:47:22;1.70;;;1.60;;
41466;SDS011;27205;53.690;19.948;2023-04-06T12:52:29;2.50;;;2.30;;
41466;SDS011;27205;53.690;19.948;2023-04-06T12:57:34;2.00;;;1.90;;
41466;SDS011;27205;53.690;19.948;2023-04-06T13:02:38;2.20;;;2.00;;
41466;SDS011;27205;53.690;19.948;2023-04-06T13:07:41;2.20;;;1.60;;
41466;SDS011;27205;53.690;19.948;2023-04-06T13:12:45;2.60;;;2.50;;
41466;SDS011;27205;53.690;19.948;2023-04-06T13:17:48;2.70;;;2.50;;
41466;SDS011;27205;53.690;19.948;2023-04-06T13:22:52;2.10;;;2.00;;
41466;SDS011;27205;53.690;19.948;2023-04-06T13:27:55;2.20;;;2.10;;
41466;SDS011;27205;53.690;19.948;2023-04-06T13:32:59;3.90;;;3.60;;
41466;SDS011;27205;53.690;19.948;2023-04-06T13:38:03;2.40;;;2.30;;
41466;SDS011;27205;53.690;19.948;2023-04-06T13:43:07;1.10;;;1.10;;
41466;SDS011;27205;53.690;19.948;2023-04-06T13:48:11;4.60;;;3.20;;
41466;SDS011;27205;53.690;19.948;2023-04-06T13:53:14;2.10;;;2.00;;
41466;SDS011;27205;53.690;19.948;2023-04-06T13:58:18;2.40;;;1.70;;
41466;SDS011;27205;53.690;19.948;2023-04-06T14:03:22;2.00;;;1.90;;
41466;SDS011;27205;53.690;19.948;2023-04-06T14:08:25;2.50;;;2.30;;
41466;SDS011;27205;53.690;19.948;2023-04-06T14:13:29;1.90;;;1.80;;
41466;SDS011;27205;53.690;19.948;2023-04-06T14:18:33;2.00;;;1.90;;
41466;SDS011;27205;53.690;19.948;2023-04-06T14:23:38;2.60;;;1.90;;
41466;SDS011;27205;53.690;19.948;2023-04-06T14:28:45;1.60;;;1.50;;
41466;SDS011;27205;53.690;19.948;2023-04-06T14:33:50;1.50;;;1.40;;
41466;SDS011;27205;53.690;19.948;2023-04-06T14:38:53;3.30;;;3.10;;
41466;SDS011;27205;53.690;19.948;2023-04-06T14:43:57;2.70;;;2.50;;
41466;SDS011;27205;53.690;19.948;2023-04-06T14:49:01;3.90;;;3.70;;
41466;SDS011;27205;53.690;19.948;2023-04-06T14:54:08;7.50;;;7.00;;
41466;SDS011;27205;53.690;19.948;2023-04-06T14:59:11;3.20;;;3.00;;
41466;SDS011;27205;53.690;19.948;2023-04-06T15:04:15;3.10;;;2.90;;
41466;SDS011;27205;53.690;19.948;2023-04-06T15:09:20;2.20;;;2.10;;
41466;SDS011;27205;53.690;19.948;2023-04-06T15:14:23;2.50;;;2.40;;
41466;SDS011;27205;53.690;19.948;2023-04-06T15:19:27;3.20;;;2.90;;
41466;SDS011;27205;53.690;19.948;2023-04-06T15:24:31;2.50;;;2.40;;
41466;SDS011;27205;53.690;19.948;2023-04-06T15:29:34;3.70;;;3.30;;
41466;SDS011;27205;53.690;19.948;2023-04-06T15:34:38;2.10;;;1.90;;
41466;SDS011;27205;53.690;19.948;2023-04-06T15:39:42;2.40;;;2.30;;
41466;SDS011;27205;53.690;19.948;2023-04-06T15:44:46;2.60;;;2.40;;
41466;SDS011;27205;53.690;19.948;2023-04-06T15:49:49;2.90;;;2.70;;
41466;SDS011;27205;53.690;19.948;2023-04-06T15:54:53;2.70;;;2.50;;
41466;SDS011;27205;53.690;19.948;2023-04-06T15:59:56;8.90;;;8.20;;
41466;SDS011;27205;53.690;19.948;2023-04-06T16:05:00;3.80;;;3.60;;
41466;SDS011;27205;53.690;19.948;2023-04-06T16:10:06;4.50;;;4.10;;
41466;SDS011;27205;53.690;19.948;2023-04-06T16:15:10;4.90;;;4.50;;
41466;SDS011;27205;53.690;19.948;2023-04-06T16:20:13;5.70;;;5.30;;
41466;SDS011;27205;53.690;19.948;2023-04-06T16:25:17;5.40;;;5.00;;
41466;SDS011;27205;53.690;19.948;2023-04-06T16:30:21;3.10;;;2.90;;
41466;SDS011;27205;53.690;19.948;2023-04-06T16:35:26;3.20;;;3.00;;
41466;SDS011;27205;53.690;19.948;2023-04-06T16:40:30;4.20;;;3.90;;
41466;SDS011;27205;53.690;19.948;2023-04-06T16:45:33;2.20;;;2.00;;
41466;SDS011;27205;53.690;19.948;2023-04-06T16:50:37;2.70;;;2.50;;
41466;SDS011;27205;53.690;19.948;2023-04-06T16:55:42;2.40;;;2.20;;
41466;SDS011;27205;53.690;19.948;2023-04-06T17:00:45;2.70;;;2.50;;
41466;SDS011;27205;53.690;19.948;2023-04-06T17:05:50;4.70;;;4.30;;
41466;SDS011;27205;53.690;19.948;2023-04-06T17:11:39;3.30;;;3.10;;
41466;SDS011;27205;53.690;19.948;2023-04-06T17:16:49;4.70;;;4.30;;
41466;SDS011;27205;53.690;19.948;2023-04-06T17:21:52;4.10;;;3.80;;
41466;SDS011;27205;53.690;19.948;2023-04-06T17:26:56;3.40;;;3.10;;
41466;SDS011;27205;53.690;19.948;2023-04-06T17:31:59;4.30;;;4.00;;
41466;SDS011;27205;53.690;19.948;2023-04-06T17:37:10;3.20;;;3.00;;
41466;SDS011;27205;53.690;19.948;2023-04-06T17:42:46;3.30;;;3.10;;
41466;SDS011;27205;53.690;19.948;2023-04-06T17:47:49;3.40;;;3.10;;
41466;SDS011;27205;53.690;19.948;2023-04-06T17:53:03;2.20;;;2.10;;
41466;SDS011;27205;53.690;19.948;2023-04-06T18:13:35;3.10;;;2.90;;
41466;SDS011;27205;53.690;19.948;2023-04-06T18:18:46;3.50;;;3.20;;
41466;SDS011;27205;53.690;19.948;2023-04-06T18:45:42;4.90;;;4.50;;
41466;SDS011;27205;53.690;19.948;2023-04-06T18:50:53;5.00;;;4.60;;
41466;SDS011;27205;53.690;19.948;2023-04-06T18:56:26;4.00;;;3.70;;
41466;SDS011;27205;53.690;19.948;2023-04-06T19:02:15;3.80;;;3.50;;
41466;SDS011;27205;53.690;19.948;2023-04-06T19:07:25;5.30;;;4.90;;
41466;SDS011;27205;53.690;19.948;2023-04-06T19:12:29;5.00;;;4.60;;
41466;SDS011;27205;53.690;19.948;2023-04-06T19:17:33;5.40;;;5.00;;
41466;SDS011;27205;53.690;19.948;2023-04-06T19:22:37;5.50;;;5.10;;
41466;SDS011;27205;53.690;19.948;2023-04-06T19:27:41;5.80;;;5.40;;
41466;SDS011;27205;53.690;19.948;2023-04-06T19:32:51;5.30;;;4.90;;
41466;SDS011;27205;53.690;19.948;2023-04-06T19:38:05;8.20;;;7.50;;
41466;SDS011;27205;53.690;19.948;2023-04-06T19:43:19;6.20;;;5.80;;
41466;SDS011;27205;53.690;19.948;2023-04-06T20:00:44;6.90;;;6.40;;
41466;SDS011;27205;53.690;19.948;2023-04-06T20:05:56;6.90;;;6.40;;
41466;SDS011;27205;53.690;19.948;2023-04-06T20:29:59;6.80;;;6.30;;
41466;SDS011;27205;53.690;19.948;2023-04-06T20:35:02;5.40;;;5.10;;
41466;SDS011;27205;53.690;19.948;2023-04-06T20:40:06;6.00;;;5.50;;
41466;SDS011;27205;53.690;19.948;2023-04-06T20:50:14;6.40;;;5.90;;
41466;SDS011;27205;53.690;19.948;2023-04-06T20:55:18;10.30;;;9.40;;
41466;SDS011;27205;53.690;19.948;2023-04-06T21:00:21;7.90;;;7.30;;
41466;SDS011;27205;53.690;19.948;2023-04-06T21:05:25;9.80;;;8.90;;
41466;SDS011;27205;53.690;19.948;2023-04-06T21:10:29;8.10;;;7.50;;
41466;SDS011;27205;53.690;19.948;2023-04-06T21:15:32;9.90;;;9.10;;
41466;SDS011;27205;53.690;19.948;2023-04-06T21:20:36;10.70;;;9.70;;
41466;SDS011;27205;53.690;19.948;2023-04-06T21:25:40;8.70;;;8.00;;
41466;SDS011;27205;53.690;19.948;2023-04-06T21:30:43;9.00;;;8.40;;
41466;SDS011;27205;53.690;19.948;2023-04-06T21:35:47;9.70;;;8.90;;
41466;SDS011;27205;53.690;19.948;2023-04-06T21:40:54;7.50;;;7.00;;
41466;SDS011;27205;53.690;19.948;2023-04-06T21:45:58;10.00;;;9.20;;
41466;SDS011;27205;53.690;19.948;2023-04-06T21:51:01;8.90;;;8.30;;
41466;SDS011;27205;53.690;19.948;2023-04-06T21:56:05;7.50;;;7.00;;
41466;SDS011;27205;53.690;19.948;2023-04-06T22:01:09;8.60;;;8.00;;
41466;SDS011;27205;53.690;19.948;2023-04-06T22:11:17;9.60;;;8.90;;
41466;SDS011;27205;53.690;19.948;2023-04-06T22:16:20;9.50;;;8.80;;
41466;SDS011;27205;53.690;19.948;2023-04-06T22:21:24;10.90;;;10.00;;
41466;SDS011;27205;53.690;19.948;2023-04-06T22:26:28;10.00;;;9.20;;
41466;SDS011;27205;53.690;19.948;2023-04-06T22:31:32;8.30;;;7.80;;
41466;SDS011;27205;53.690;19.948;2023-04-06T22:36:35;9.40;;;8.70;;
41466;SDS011;27205;53.690;19.948;2023-04-06T22:41:39;10.80;;;9.90;;
41466;SDS011;27205;53.690;19.948;2023-04-06T22:46:42;9.70;;;9.00;;
41466;SDS011;27205;53.690;19.948;2023-04-06T22:51:46;9.60;;;8.90;;
41466;SDS011;27205;53.690;19.948;2023-04-06T22:56:49;10.40;;;9.50;;
41466;SDS011;27205;53.690;19.948;2023-04-06T23:01:53;11.10;;;10.30;;
41466;SDS011;27205;53.690;19.948;2023-04-06T23:06:59;9.10;;;8.40;;
41466;SDS011;27205;53.690;19.948;2023-04-06T23:12:02;9.50;;;8.60;;
41466;SDS011;27205;53.690;19.948;2023-04-06T23:17:06;11.90;;;11.00;;
41466;SDS011;27205;53.690;19.948;2023-04-06T23:22:11;10.10;;;9.40;;
41466;SDS011;27205;53.690;19.948;2023-04-06T23:27:15;11.20;;;10.30;;
41466;SDS011;27205;53.690;19.948;2023-04-06T23:32:18;11.00;;;10.20;;
41466;SDS011;27205;53.690;19.948;2023-04-06T23:37:22;11.10;;;10.20;;
41466;SDS011;27205;53.690;19.948;2023-04-06T23:42:25;11.80;;;10.70;;
41466;SDS011;27205;53.690;19.948;2023-04-06T23:47:31;9.00;;;8.30;;
41466;SDS011;27205;53.690;19.948;2023-04-06T23:52:34;12.00;;;11.00;;
41466;SDS011;27205;53.690;19.948;2023-04-06T23:57:38;11.50;;;10.50;;
